Accueil
METAR-TAF:

METAR-TAF

Aéroports :

Aéroport de Corfou

Corfou, Grèce

latitude: 39-37N, longitude: 019-55E, altitude: 2 m

Observation

Le bulletin a été fait il y a 11 minutes, à 07:20 UTC
Vent 3 kt de ouest
Température 32°C
Humidité 59%
Pression 1013 hPa
Visibilité 10 km ou plus
pas de nuages en-dessous de 1500 mètres et pas de cumulonimbus.

METAR: LGKR 030720Z 28003KT CAVOK 32/23 Q1013 NOSIG

Heure: 10:31 (07:31 UTC)

Prévision

Le bulletin a été fait il y a 2 heures et 31 minutes, à 05:00 UTC
Prévision valable du 03 à 06 UTC au 04 à 06 UTC
Vent 10 kt de nord/nord-ouest
Visibilité 10 km ou plus
pas de nuages en-dessous de 1500 mètres et pas de cumulonimbus.
Temporairement
du 03 à 09 UTC au 03 à 15 UTC
Vent 12 kt de ouest/nord-ouest avec des rafales jusqu'à 22 kt

TAF: LGKR 030500Z 0306/0406 33010KT CAVOK TEMPO 0309/0315 30012G22KT

Observations et prévisions météorologiques de plus de 4000 aéroports (messages METAR et TAF).

Les stations disponibles sont représentées par des disques jaunes et rouges sur la carte.

Passer la souris dessus pour voir le nom de la station.

Cliquer dessus pour voir les observations et prévisions météorologiques.

Pour changer de carte: cliquez sur les boutons verts avec une croix noire pour zoomer, sur le bouton vert avec un tiret pour effectuer un zoom arrière, ou sur les flèches vertes pour les cartes adjacentes.


METAR-TAF: